KTWF/TWF METAR and TAF weather

Enter ICAO airport designator
Station Type Date Time Source
KTWF METAR 2021/07/28 18:53 UTC NOAA

KTWF 281853Z 32011KT 10SM CLR 31/10 A3020 RMK AO2 SLP161 T03060100


Station Type Date Time Source
KTWF Decoded METAR 2021/07/28 18:53 UTC NOAA

JOSLIN FLD-MAGIC VALLEY REGL, ID, United States (KTWF) 42-29N 114-29W 1266M
Jul 28, 2021 - 02:53 PM EDT / 2021.07.28 1853 UTC
Wind: from the NW (320 degrees) at 13 MPH (11 KT):0
Visibility: 10 mile(s):0
Sky conditions: clear
Temperature: 87.1 F (30.6 C)
Dew Point: 50.0 F (10.0 C)
Relative Humidity: 27%
Pressure (altimeter): 30.2 in. Hg (1022 hPa)
ob: KTWF 281853Z 32011KT 10SM CLR 31/10 A3020 RMK AO2 SLP161 T03060100
cycle: 19

Station Type Date Time Source
KTWF TAF 2021/07/28 18:36 UTC NOAA

TAF KTWF 281735Z 2818/2918 28011KT 6SM FU BKN100
FM282000 29011G18KT 6SM FU BKN150
FM290300 19011KT 6SM FU BKN150
TEMPO 2903/2905 VRB15G25KT 6SM -TSRA BKN060CB

Example: see airport list